createdAt,value
2023-02-09T00:01:40.932Z,100035.94
2023-02-09T00:06:42.818Z,100027.72
2023-02-09T00:12:03.133Z,100026.97
2023-02-09T00:17:05.913Z,100034.03
2023-02-09T00:22:07.744Z,100024.38
2023-02-09T00:27:09.689Z,100023.97
2023-02-09T00:32:11.685Z,100031.38
2023-02-09T00:37:15.146Z,100028.38
2023-02-09T00:42:16.980Z,100025.78
2023-02-09T00:47:18.867Z,100028.00
2023-02-09T00:52:20.997Z,100014.00
2023-02-09T00:57:22.834Z,100002.25
2023-02-09T01:02:24.807Z,100015.31
2023-02-09T01:07:26.932Z,100013.72
2023-02-09T01:12:29.165Z,100010.59
2023-02-09T01:17:30.999Z,99998.91
2023-02-09T01:22:32.939Z,99996.00
2023-02-09T01:27:34.965Z,99992.44
2023-02-09T01:32:37.437Z,99983.28
2023-02-09T01:37:39.360Z,99994.56
2023-02-09T01:42:42.465Z,99987.16
2023-02-09T01:47:50.815Z,99987.03
2023-02-09T01:52:53.851Z,99974.88
2023-02-09T01:58:03.388Z,99969.75
2023-02-09T02:03:09.626Z,99962.19
2023-02-09T02:08:19.265Z,99966.59
2023-02-09T02:13:21.377Z,99969.97
2023-02-09T02:18:27.981Z,99968.84
2023-02-09T02:23:43.256Z,99958.13
2023-02-09T02:28:54.339Z,99970.25
2023-02-09T02:34:47.440Z,99967.53
2023-02-09T02:40:13.248Z,99964.53
2023-02-09T02:45:33.490Z,99966.22
2023-02-09T02:50:40.515Z,99952.13
2023-02-09T02:55:45.876Z,99959.88
2023-02-09T03:00:52.035Z,99957.00
2023-02-09T03:05:54.172Z,99950.28
2023-02-09T03:10:56.890Z,99944.19
2023-02-09T03:16:37.325Z,99953.75
2023-02-09T03:21:45.834Z,99954.19
2023-02-09T03:27:21.907Z,99952.22
2023-02-09T03:32:24.497Z,99945.13
2023-02-09T03:37:26.395Z,99951.97
2023-02-09T03:42:28.328Z,99941.81
2023-02-09T03:47:30.907Z,99950.72
2023-02-09T03:52:32.956Z,99941.97
2023-02-09T03:57:35.350Z,99939.72
2023-02-09T04:02:37.296Z,99941.81
2023-02-09T04:07:39.157Z,99932.88
2023-02-09T04:12:40.971Z,99938.09
2023-02-09T04:17:42.824Z,99937.22
2023-02-09T04:22:44.625Z,99927.38
2023-02-09T04:27:46.413Z,99932.47
2023-02-09T04:32:48.228Z,99931.78
2023-02-09T04:37:50.048Z,99922.78
2023-02-09T04:42:51.835Z,99918.34
2023-02-09T04:47:53.707Z,99917.03
2023-02-09T04:52:55.502Z,99914.84
2023-02-09T04:58:17.115Z,99917.63
2023-02-09T05:03:19.113Z,99909.81
2023-02-09T05:08:20.938Z,99911.16
2023-02-09T05:13:24.291Z,99899.38
2023-02-09T05:18:26.375Z,99905.69
2023-02-09T05:23:28.209Z,99902.03
2023-02-09T05:28:30.222Z,99901.88
2023-02-09T05:33:32.095Z,99896.97
2023-02-09T05:38:33.942Z,99896.97
2023-02-09T05:43:36.925Z,99890.81
2023-02-09T05:48:38.748Z,99899.06
2023-02-09T05:53:40.553Z,99891.91
2023-02-09T05:58:42.334Z,99892.84
2023-02-09T06:03:44.135Z,99890.19
2023-02-09T06:08:45.938Z,99893.22
2023-02-09T06:13:47.744Z,99886.53
2023-02-09T06:18:49.576Z,99894.06
2023-02-09T06:23:51.454Z,99901.56
2023-02-09T06:28:53.266Z,99895.66
2023-02-09T06:33:55.126Z,99908.03
2023-02-09T06:38:56.948Z,99906.56
2023-02-09T06:43:58.782Z,99902.09
2023-02-09T06:49:00.772Z,99911.81
2023-02-09T06:54:02.789Z,99922.47
2023-02-09T06:59:04.616Z,99920.66
2023-02-09T07:04:06.519Z,99910.38
2023-02-09T07:09:08.638Z,99902.28
2023-02-09T07:14:10.504Z,99889.84
2023-02-09T07:19:12.422Z,99897.16
2023-02-09T07:24:14.498Z,99896.06
2023-02-09T07:29:16.698Z,99902.59
2023-02-09T07:34:18.582Z,99915.22
2023-02-09T07:39:20.510Z,99916.28
2023-02-09T07:44:22.750Z,99917.56
2023-02-09T07:49:24.584Z,99916.41
2023-02-09T07:54:26.412Z,99927.28
2023-02-09T07:59:28.240Z,99922.03
2023-02-09T08:04:30.194Z,99928.78
2023-02-09T08:09:32.049Z,99927.25
2023-02-09T08:14:48.546Z,99928.06
2023-02-09T08:19:56.575Z,99932.44
2023-02-09T08:25:02.300Z,99933.97
2023-02-09T08:30:04.612Z,99936.41
2023-02-09T08:35:06.853Z,99952.84
2023-02-09T08:40:09.465Z,99941.75
2023-02-09T08:45:11.645Z,99948.50
2023-02-09T08:50:13.549Z,99938.38
2023-02-09T08:55:15.443Z,99929.66
2023-02-09T09:00:17.663Z,99940.28
2023-02-09T09:05:19.497Z,99937.31
2023-02-09T09:10:21.266Z,99932.63
2023-02-09T09:15:23.093Z,99922.97
2023-02-09T09:20:24.834Z,99931.13
2023-02-09T09:25:26.662Z,99941.44
2023-02-09T09:30:28.493Z,99938.81
2023-02-09T09:35:31.685Z,99938.34
2023-02-09T09:40:37.705Z,99928.44
2023-02-09T09:45:39.940Z,99937.28
2023-02-09T09:50:43.589Z,99927.63
2023-02-09T09:55:46.659Z,99930.34
2023-02-09T10:00:50.222Z,99933.03
2023-02-09T10:06:13.952Z,99943.75
2023-02-09T10:11:23.212Z,99928.22
2023-02-09T10:16:26.788Z,99932.47
2023-02-09T10:21:32.022Z,99934.63
2023-02-09T10:26:38.219Z,99936.78
2023-02-09T10:31:55.066Z,99922.22
2023-02-09T10:37:27.987Z,99915.69
2023-02-09T10:42:33.000Z,99900.03
2023-02-09T10:47:35.012Z,99904.84
2023-02-09T10:52:42.244Z,99890.53
2023-02-09T10:57:44.115Z,99890.75
2023-02-09T11:02:52.499Z,99885.13
2023-02-09T11:08:09.073Z,99881.03
2023-02-09T11:13:22.156Z,99877.28
2023-02-09T11:18:28.951Z,99861.03
2023-02-09T11:23:49.050Z,99848.31
2023-02-09T11:29:14.481Z,99848.06
2023-02-09T11:34:37.937Z,99853.56
2023-02-09T11:40:13.444Z,99838.22
2023-02-09T11:45:21.030Z,99838.22
2023-02-09T11:50:41.086Z,99823.88
2023-02-09T11:55:52.262Z,99822.72
2023-02-09T12:01:14.609Z,99810.00
2023-02-09T12:06:23.051Z,99807.25
2023-02-09T12:11:39.883Z,99793.78
2023-02-09T12:16:50.116Z,99782.97
2023-02-09T12:21:52.039Z,99770.00
2023-02-09T12:26:57.578Z,99767.19
2023-02-09T12:32:08.105Z,99761.06
2023-02-09T12:37:13.222Z,99742.56
2023-02-09T12:42:15.039Z,99744.44
2023-02-09T12:47:54.444Z,99733.56
2023-02-09T12:53:24.192Z,99714.91
2023-02-09T12:58:54.207Z,99696.19
2023-02-09T13:04:03.684Z,99683.78
2023-02-09T13:09:13.574Z,99689.59
2023-02-09T13:14:16.454Z,99700.63
2023-02-09T13:19:57.036Z,99698.59
2023-02-09T13:25:08.673Z,99691.19
2023-02-09T13:30:31.866Z,99690.75
2023-02-09T13:35:48.178Z,99679.25
2023-02-09T13:40:50.838Z,99670.81
2023-02-09T13:45:57.526Z,99648.28
2023-02-09T13:51:03.125Z,99634.34
2023-02-09T13:56:11.940Z,99651.56
2023-02-09T14:01:17.086Z,99660.28
2023-02-09T14:06:36.909Z,99664.91
2023-02-09T14:11:44.194Z,99667.34
2023-02-09T14:16:53.459Z,99665.03
2023-02-09T14:21:55.804Z,99677.69
2023-02-09T14:27:04.836Z,99667.72
2023-02-09T14:32:35.416Z,99666.69
2023-02-09T14:37:37.310Z,99678.75
2023-02-09T14:43:10.763Z,99689.22
2023-02-09T14:48:27.559Z,99696.28
2023-02-09T14:53:31.952Z,99704.00
2023-02-09T14:58:34.104Z,99698.84
2023-02-09T15:03:35.936Z,99703.44
2023-02-09T15:08:39.259Z,99705.81
2023-02-09T15:13:41.071Z,99689.59
2023-02-09T15:18:42.874Z,99699.47
2023-02-09T15:23:44.685Z,99698.53
2023-02-09T15:28:46.593Z,99702.00
2023-02-09T15:33:48.430Z,99706.47
2023-02-09T15:38:50.678Z,99704.03
2023-02-09T15:44:11.025Z,99714.97
2023-02-09T15:49:13.110Z,99715.66
2023-02-09T15:54:19.466Z,99719.47
2023-02-09T15:59:23.441Z,99718.22
2023-02-09T16:04:25.465Z,99727.75
2023-02-09T16:09:29.459Z,99722.00
2023-02-09T16:14:31.807Z,99725.22
2023-02-09T16:19:33.908Z,99733.06
2023-02-09T16:24:44.262Z,99732.78
2023-02-09T16:29:46.122Z,99736.19
2023-02-09T16:34:48.513Z,99741.84
2023-02-09T16:39:50.531Z,99741.25
2023-02-09T16:44:53.139Z,99738.41
2023-02-09T16:49:57.806Z,99731.69
2023-02-09T16:55:01.525Z,99743.50
2023-02-09T17:00:03.961Z,99751.84
2023-02-09T17:05:30.597Z,99762.59
2023-02-09T17:10:34.902Z,99760.75
2023-02-09T17:15:49.074Z,99761.28
2023-02-09T17:20:55.231Z,99767.72
2023-02-09T17:25:57.573Z,99786.25
2023-02-09T17:31:02.016Z,99781.13
2023-02-09T17:36:25.104Z,99800.91
2023-02-09T17:41:37.273Z,99801.38
2023-02-09T17:46:39.125Z,99806.25
2023-02-09T17:51:43.530Z,99819.66
2023-02-09T17:56:45.838Z,99826.88
2023-02-09T18:01:55.194Z,99810.50
2023-02-09T18:06:58.368Z,99820.13
2023-02-09T18:12:03.042Z,99817.47
2023-02-09T18:17:05.043Z,99822.75
2023-02-09T18:22:07.014Z,99800.72
2023-02-09T18:27:14.805Z,99803.47
2023-02-09T18:32:17.400Z,99808.31
2023-02-09T18:37:19.242Z,99798.91
2023-02-09T18:42:21.081Z,99797.28
2023-02-09T18:47:23.573Z,99796.63
2023-02-09T18:52:27.071Z,99803.28
2023-02-09T18:57:28.921Z,99802.25
2023-02-09T19:02:30.836Z,99808.13
2023-02-09T19:07:34.109Z,99806.94
2023-02-09T19:12:36.819Z,99794.03
2023-02-09T19:17:40.498Z,99800.44
2023-02-09T19:22:42.461Z,99807.13
2023-02-09T19:27:44.571Z,99800.44
2023-02-09T19:32:46.399Z,99802.63
2023-02-09T19:37:55.686Z,99805.34
2023-02-09T19:42:57.538Z,99793.09
2023-02-09T19:47:59.335Z,99798.50
2023-02-09T19:53:02.893Z,99805.50
2023-02-09T19:58:04.759Z,99799.63
2023-02-09T20:03:06.689Z,99804.22
2023-02-09T20:08:09.593Z,99800.72
2023-02-09T20:13:15.077Z,99794.59
2023-02-09T20:18:17.758Z,99795.81
2023-02-09T20:23:20.032Z,99806.00
2023-02-09T20:28:21.928Z,99802.47
2023-02-09T20:33:24.019Z,99794.25
2023-02-09T20:38:25.841Z,99787.84
2023-02-09T20:43:46.637Z,99792.66
2023-02-09T20:48:49.000Z,99790.56
2023-02-09T20:53:50.802Z,99777.94
2023-02-09T20:58:52.693Z,99789.44
2023-02-09T21:03:56.718Z,99788.84
2023-02-09T21:08:58.476Z,99782.38
2023-02-09T21:14:02.991Z,99778.34
2023-02-09T21:19:04.892Z,99782.13
2023-02-09T21:24:06.762Z,99781.81
2023-02-09T21:29:09.089Z,99775.88
2023-02-09T21:34:15.438Z,99786.88
2023-02-09T21:39:17.269Z,99789.25
2023-02-09T21:44:19.113Z,99799.31
2023-02-09T21:49:21.254Z,99805.19
2023-02-09T21:54:25.802Z,99813.75
2023-02-09T21:59:29.514Z,99815.31
2023-02-09T22:04:32.014Z,99825.06
2023-02-09T22:09:34.058Z,99835.50
2023-02-09T22:14:35.966Z,99849.13
2023-02-09T22:19:37.924Z,99862.50
2023-02-09T22:24:39.767Z,99864.38
2023-02-09T22:29:41.634Z,99869.13
2023-02-09T22:34:43.442Z,99858.91
2023-02-09T22:39:45.275Z,99861.41
2023-02-09T22:44:48.131Z,99850.38
2023-02-09T22:49:49.939Z,99840.13
2023-02-09T22:54:52.523Z,99847.50
2023-02-09T22:59:54.347Z,99847.69
2023-02-09T23:04:56.141Z,99842.03
2023-02-09T23:09:57.947Z,99842.34
2023-02-09T23:14:59.824Z,99845.56
2023-02-09T23:20:01.661Z,99843.16
2023-02-09T23:25:03.486Z,99852.72
2023-02-09T23:30:05.659Z,99844.16
2023-02-09T23:35:08.074Z,99839.81
2023-02-09T23:40:10.604Z,99837.09
2023-02-09T23:45:12.438Z,99839.19
2023-02-09T23:50:14.337Z,99842.38
2023-02-09T23:55:16.359Z,99841.00
